Time;durP1;ratioP1;P1;durP2;ratioP2;P2;SDS_P1;SDS_P2;PMS_P1;PMS_P2;Temp;Humidity;BMP_temperature;BMP_pressure;BME280_temperature;BME280_humidity;BME280_pressure;Samples;Min_cycle;Max_cycle;Signal;HPM_P1;HPM_P2
2021/11/21 00:01:04;;;;;;;4.95;2.53;;;20.00;47.50;;;;;;5113356;28;20519;-54
2021/11/21 00:03:31;;;;;;;5.47;2.63;;;20.00;47.60;;;;;;5113488;28;20471;-55
2021/11/21 00:05:56;;;;;;;4.30;2.38;;;20.10;47.50;;;;;;5113523;28;20016;-52
2021/11/21 00:08:22;;;;;;;5.53;2.75;;;20.00;47.50;;;;;;5113574;28;20462;-55
2021/11/21 00:10:48;;;;;;;4.57;2.55;;;20.00;47.60;;;;;;5113338;28;20463;-54
2021/11/21 00:13:14;;;;;;;4.93;2.55;;;20.00;47.50;;;;;;5113344;28;20027;-57
2021/11/21 00:15:41;;;;;;;5.15;2.75;;;20.00;47.50;;;;;;5115674;28;20046;-53
2021/11/21 00:18:07;;;;;;;4.80;2.55;;;20.00;47.60;;;;;;5117355;28;20374;-55
2021/11/21 00:20:33;;;;;;;4.45;2.50;;;20.00;47.50;;;;;;5117551;28;20023;-52
2021/11/21 00:22:59;;;;;;;5.18;2.70;;;20.00;47.50;;;;;;5117463;28;20153;-52
2021/11/21 00:25:25;;;;;;;5.90;2.60;;;20.00;47.50;;;;;;5117509;28;20103;-50
2021/11/21 00:27:50;;;;;;;5.60;2.33;;;20.00;47.50;;;;;;5117481;28;20485;-52
2021/11/21 00:30:16;;;;;;;5.00;2.42;;;20.00;47.50;;;;;;5117085;28;20370;-52
2021/11/21 00:32:42;;;;;;;4.85;2.80;;;20.00;47.50;;;;;;5117324;28;20030;-52
2021/11/21 00:35:08;;;;;;;6.20;3.13;;;20.10;47.50;;;;;;5117331;28;20031;-50
2021/11/21 00:37:33;;;;;;;5.22;2.63;;;20.00;47.60;;;;;;5117200;28;20031;-54
2021/11/21 00:39:59;;;;;;;4.82;2.42;;;20.00;47.60;;;;;;5117232;28;20027;-51
2021/11/21 00:42:25;;;;;;;6.20;2.53;;;20.00;47.60;;;;;;5116713;28;20088;-51
2021/11/21 00:44:51;;;;;;;5.38;2.90;;;20.00;47.60;;;;;;5116980;28;20387;-53
2021/11/21 00:47:16;;;;;;;5.25;2.72;;;20.00;47.50;;;;;;5117066;28;20035;-50
2021/11/21 00:49:42;;;;;;;5.38;2.75;;;20.00;47.50;;;;;;5117073;28;20024;-56
2021/11/21 00:52:09;;;;;;;8.10;2.85;;;20.00;47.60;;;;;;5116690;28;20048;-54
2021/11/21 00:54:52;;;;;;;5.45;2.38;;;20.00;47.60;;;;;;5116689;28;20474;-55
2021/11/21 00:57:17;;;;;;;5.90;2.72;;;20.00;47.50;;;;;;5116978;28;20035;-53
2021/11/21 00:59:43;;;;;;;5.55;2.78;;;20.00;47.50;;;;;;5116601;28;20397;-52
2021/11/21 01:02:11;;;;;;;6.60;2.40;;;20.00;47.50;;;;;;5116501;28;20020;-53
2021/11/21 01:04:39;;;;;;;5.53;2.60;;;20.00;47.50;;;;;;5116797;28;20031;-53
2021/11/21 01:07:05;;;;;;;5.40;2.28;;;20.00;47.50;;;;;;5116584;28;20031;-56
2021/11/21 01:09:31;;;;;;;5.18;2.63;;;20.00;47.50;;;;;;5116551;28;20055;-50
2021/11/21 01:11:57;;;;;;;5.00;2.72;;;20.00;47.60;;;;;;5116467;28;20052;-54
2021/11/21 01:14:27;;;;;;;6.28;2.63;;;20.00;47.60;;;;;;5116299;28;20020;-54
2021/11/21 01:16:52;;;;;;;4.97;2.25;;;20.00;47.60;;;;;;5115031;28;20028;-52
2021/11/21 01:19:18;;;;;;;5.78;2.65;;;20.00;47.60;;;;;;5114988;28;20024;-51
2021/11/21 01:21:44;;;;;;;4.78;2.45;;;20.00;47.60;;;;;;5116159;28;20015;-55
2021/11/21 01:24:09;;;;;;;5.43;2.65;;;20.00;47.60;;;;;;5115950;28;20035;-56
2021/11/21 01:26:35;;;;;;;4.65;2.42;;;20.00;47.60;;;;;;5113925;28;20015;-51
2021/11/21 01:29:01;;;;;;;5.97;2.53;;;20.00;47.60;;;;;;5116043;28;20020;-51
2021/11/21 01:31:26;;;;;;;5.72;2.88;;;20.00;47.60;;;;;;5116229;28;20031;-50
2021/11/21 01:33:52;;;;;;;5.57;2.40;;;20.00;47.60;;;;;;5116217;28;20107;-51
2021/11/21 01:36:18;;;;;;;5.07;2.58;;;20.00;47.50;;;;;;5115974;28;20055;-51
2021/11/21 01:38:44;;;;;;;4.78;2.33;;;19.90;47.60;;;;;;5115918;28;20588;-55
2021/11/21 01:41:11;;;;;;;4.30;2.40;;;20.00;47.60;;;;;;5115655;28;20513;-54
2021/11/21 01:43:37;;;;;;;5.80;2.78;;;20.00;47.60;;;;;;5115633;28;20082;-51
2021/11/21 01:46:03;;;;;;;5.30;2.70;;;20.00;47.50;;;;;;5115701;28;20546;-53
2021/11/21 01:48:29;;;;;;;4.68;2.75;;;20.00;47.50;;;;;;5115833;28;20031;-49
2021/11/21 01:50:58;;;;;;;4.97;2.63;;;20.00;47.60;;;;;;5115756;28;20019;-50
2021/11/21 01:53:23;;;;;;;5.32;2.60;;;20.00;47.60;;;;;;5115877;28;20062;-53
2021/11/21 01:55:49;;;;;;;4.45;2.60;;;20.00;47.50;;;;;;5115707;28;20031;-53
2021/11/21 01:58:15;;;;;;;5.28;2.65;;;20.00;47.60;;;;;;5115561;28;20045;-56
2021/11/21 02:00:43;;;;;;;5.50;2.78;;;20.00;47.50;;;;;;5115630;28;20027;-49
2021/11/21 02:03:09;;;;;;;5.00;2.70;;;20.00;47.60;;;;;;5115361;28;20088;-52
2021/11/21 02:05:34;;;;;;;6.30;3.00;;;19.90;47.60;;;;;;5114111;28;20023;-50
2021/11/21 02:08:03;;;;;;;4.55;2.50;;;19.90;47.50;;;;;;5115370;28;20026;-49
2021/11/21 02:10:28;;;;;;;5.20;2.85;;;20.00;47.60;;;;;;5115455;28;20023;-50
2021/11/21 02:12:54;;;;;;;5.50;2.75;;;20.00;47.60;;;;;;5115227;28;20024;-50
2021/11/21 02:15:23;;;;;;;6.30;3.05;;;20.00;47.60;;;;;;5115386;28;20424;-50
2021/11/21 02:17:49;;;;;;;5.28;2.72;;;20.00;47.60;;;;;;5115035;28;20020;-50
2021/11/21 02:20:20;;;;;;;5.10;2.63;;;20.00;47.50;;;;;;5115051;28;20532;-53
2021/11/21 02:22:46;;;;;;;4.00;2.30;;;20.00;47.60;;;;;;5115260;28;20114;-55
2021/11/21 02:25:12;;;;;;;4.60;2.50;;;19.90;47.60;;;;;;5115170;28;20047;-50
2021/11/21 02:27:38;;;;;;;4.35;2.38;;;19.90;47.60;;;;;;5115196;28;20016;-51
2021/11/21 02:30:07;;;;;;;5.07;2.58;;;19.90;47.60;;;;;;5114990;28;20027;-53
2021/11/21 02:32:33;;;;;;;5.88;3.28;;;19.90;47.60;;;;;;5114704;28;20061;-54
2021/11/21 02:34:58;;;;;;;4.95;2.60;;;20.00;47.50;;;;;;5113408;28;20459;-54
2021/11/21 02:37:24;;;;;;;5.30;2.35;;;20.00;47.50;;;;;;5114538;28;20134;-52
2021/11/21 02:39:50;;;;;;;4.82;2.35;;;20.00;47.50;;;;;;5114744;28;20028;-52
2021/11/21 02:42:27;;;;;;;5.25;2.75;;;19.90;47.60;;;;;;5114254;28;20059;-52
2021/11/21 02:44:54;;;;;;;4.07;2.35;;;20.00;47.60;;;;;;5113697;28;20055;-51
2021/11/21 02:47:19;;;;;;;5.25;2.58;;;20.00;47.50;;;;;;5114670;28;20027;-51
2021/11/21 02:49:45;;;;;;;4.72;2.42;;;20.00;47.60;;;;;;5114523;28;20482;-49
2021/11/21 02:52:10;;;;;;;5.47;2.80;;;19.90;47.60;;;;;;5114591;28;20023;-51
2021/11/21 02:54:36;;;;;;;5.65;2.63;;;19.90;47.60;;;;;;5114405;28;20049;-52
2021/11/21 02:57:02;;;;;;;5.55;2.70;;;19.90;47.50;;;;;;5114346;28;20015;-51
2021/11/21 02:59:29;;;;;;;5.72;3.00;;;19.90;47.60;;;;;;5114473;28;20028;-53
2021/11/21 03:01:55;;;;;;;5.55;3.10;;;19.90;47.60;;;;;;5114211;28;20378;-53
2021/11/21 03:04:23;;;;;;;6.13;2.95;;;19.90;47.60;;;;;;5114110;28;20038;-51
2021/11/21 03:06:49;;;;;;;5.40;2.50;;;19.90;47.60;;;;;;5114125;28;20124;-49
2021/11/21 03:09:23;;;;;;;5.10;2.70;;;19.90;47.50;;;;;;5114392;28;20163;-50
2021/11/21 03:11:52;;;;;;;5.13;2.67;;;19.90;47.60;;;;;;5114358;28;20111;-49
2021/11/21 03:14:19;;;;;;;5.10;2.53;;;19.90;47.50;;;;;;5113981;28;20110;-49
2021/11/21 03:16:49;;;;;;;5.55;2.85;;;20.00;47.50;;;;;;5113997;28;20059;-49
2021/11/21 03:19:15;;;;;;;5.15;2.65;;;19.90;47.50;;;;;;5114170;28;20028;-51
2021/11/21 03:21:41;;;;;;;4.85;2.80;;;19.90;47.50;;;;;;5114165;28;20019;-49
2021/11/21 03:24:08;;;;;;;5.15;2.38;;;19.90;47.50;;;;;;5113616;28;20038;-54
2021/11/21 03:26:33;;;;;;;5.97;3.03;;;19.90;47.50;;;;;;5113819;28;20024;-51
2021/11/21 03:28:59;;;;;;;5.55;2.83;;;19.90;47.60;;;;;;5114068;28;20069;-52
2021/11/21 03:31:24;;;;;;;7.10;2.75;;;19.90;47.60;;;;;;5113584;28;20016;-52
2021/11/21 03:33:50;;;;;;;4.97;2.63;;;19.90;47.50;;;;;;5113866;28;20027;-51
2021/11/21 03:36:16;;;;;;;4.93;2.70;;;19.90;47.60;;;;;;5113615;28;20151;-49
2021/11/21 03:38:41;;;;;;;5.03;2.38;;;19.90;47.60;;;;;;5113627;28;20027;-51
2021/11/21 03:41:07;;;;;;;4.18;2.45;;;19.90;47.50;;;;;;5113543;28;20042;-49
2021/11/21 03:43:32;;;;;;;5.00;2.63;;;19.90;47.50;;;;;;5113461;28;20044;-55
2021/11/21 03:45:58;;;;;;;5.70;2.88;;;19.90;47.50;;;;;;5113815;28;20141;-51
2021/11/21 03:48:23;;;;;;;5.32;2.47;;;19.90;47.50;;;;;;5113418;28;20034;-50
2021/11/21 03:50:50;;;;;;;6.00;2.85;;;19.90;47.50;;;;;;5113254;28;20026;-51
2021/11/21 03:53:17;;;;;;;4.45;2.47;;;19.90;47.50;;;;;;5113458;28;20027;-50
2021/11/21 03:55:43;;;;;;;5.30;2.70;;;19.90;47.60;;;;;;5113596;28;20095;-54
2021/11/21 03:58:08;;;;;;;6.68;2.88;;;19.90;47.50;;;;;;5113400;28;20051;-49
2021/11/21 04:00:34;;;;;;;5.25;3.00;;;19.90;47.50;;;;;;5113396;28;20031;-49
2021/11/21 04:03:00;;;;;;;5.35;2.80;;;19.90;47.60;;;;;;5113311;28;20085;-51
2021/11/21 04:05:26;;;;;;;5.40;2.72;;;19.90;47.60;;;;;;5113643;28;20511;-54
2021/11/21 04:07:52;;;;;;;5.82;3.03;;;19.90;47.60;;;;;;5113472;28;20155;-51
2021/11/21 04:10:18;;;;;;;5.75;2.78;;;19.90;47.60;;;;;;5112245;28;20020;-52
2021/11/21 04:12:44;;;;;;;4.97;2.50;;;19.90;47.60;;;;;;5113543;28;20020;-49
2021/11/21 04:15:10;;;;;;;5.13;2.63;;;19.90;47.60;;;;;;5113340;28;20119;-49
2021/11/21 04:17:38;;;;;;;5.10;2.70;;;19.90;47.60;;;;;;5113464;28;20114;-51
2021/11/21 04:20:05;;;;;;;4.55;2.22;;;19.80;47.60;;;;;;5113160;28;20485;-50
2021/11/21 04:22:31;;;;;;;4.43;2.40;;;19.90;47.60;;;;;;5113316;28;20036;-50
2021/11/21 04:24:59;;;;;;;4.93;2.72;;;19.80;47.60;;;;;;5113387;28;20023;-52
2021/11/21 04:27:27;;;;;;;5.05;2.63;;;19.90;47.60;;;;;;5113457;28;20016;-52
2021/11/21 04:29:56;;;;;;;5.78;2.70;;;19.90;47.60;;;;;;5113223;28;20076;-53
2021/11/21 04:32:23;;;;;;;4.95;2.53;;;19.80;47.50;;;;;;5113067;28;20497;-50
2021/11/21 04:34:49;;;;;;;5.63;2.65;;;19.90;47.50;;;;;;5113355;28;20030;-49
2021/11/21 04:37:15;;;;;;;5.32;2.30;;;19.90;47.50;;;;;;5113188;28;20030;-49
2021/11/21 04:39:41;;;;;;;5.38;2.50;;;19.90;47.50;;;;;;5113217;28;20398;-49
2021/11/21 04:42:06;;;;;;;4.90;2.55;;;19.90;47.50;;;;;;5112834;28;20473;-51
2021/11/21 04:44:32;;;;;;;5.97;2.78;;;19.80;47.50;;;;;;5112994;28;20043;-49
2021/11/21 04:46:58;;;;;;;4.53;2.60;;;19.90;47.50;;;;;;5113266;28;20027;-49
2021/11/21 04:49:24;;;;;;;4.47;2.65;;;19.80;47.60;;;;;;5113035;28;20058;-49
2021/11/21 04:51:50;;;;;;;4.65;2.17;;;19.90;47.50;;;;;;5113223;28;20070;-50
2021/11/21 04:54:18;;;;;;;5.82;2.80;;;19.90;47.50;;;;;;5113213;28;20024;-52
2021/11/21 04:56:46;;;;;;;5.00;2.40;;;19.90;47.50;;;;;;5112888;28;20045;-54
2021/11/21 04:59:13;;;;;;;5.82;2.83;;;19.90;47.50;;;;;;5113104;28;20378;-54
2021/11/21 05:01:38;;;;;;;5.05;2.55;;;19.90;47.50;;;;;;5113668;28;20058;-55
2021/11/21 05:04:04;;;;;;;5.45;2.65;;;19.80;47.60;;;;;;5116759;28;20486;-52
2021/11/21 05:06:29;;;;;;;5.00;2.63;;;19.80;47.60;;;;;;5116544;28;20494;-54
2021/11/21 05:08:55;;;;;;;5.47;2.83;;;19.90;47.50;;;;;;5116568;28;20031;-55
2021/11/21 05:11:20;;;;;;;5.22;2.40;;;19.80;47.50;;;;;;5116719;28;20451;-50
2021/11/21 05:13:47;;;;;;;4.88;2.50;;;19.80;47.60;;;;;;5116584;28;20043;-54
2021/11/21 05:16:12;;;;;;;5.20;2.97;;;19.90;47.60;;;;;;5116685;28;20016;-54
2021/11/21 05:18:38;;;;;;;4.65;2.45;;;19.90;47.50;;;;;;5116265;28;20027;-54
2021/11/21 05:21:04;;;;;;;5.57;2.90;;;19.90;47.50;;;;;;5116613;28;20383;-49
2021/11/21 05:23:29;;;;;;;5.32;2.60;;;19.90;47.40;;;;;;5116336;28;20078;-51
2021/11/21 05:25:55;;;;;;;5.05;2.38;;;20.00;47.40;;;;;;5116072;28;20019;-53
2021/11/21 05:28:20;;;;;;;5.15;2.60;;;20.00;47.30;;;;;;5116037;28;20031;-50
2021/11/21 05:30:48;;;;;;;6.10;2.75;;;20.00;47.30;;;;;;5116292;28;20020;-51
2021/11/21 05:33:15;;;;;;;5.38;2.63;;;20.00;47.30;;;;;;5116317;28;20103;-54
2021/11/21 05:35:41;;;;;;;4.72;2.60;;;20.00;47.30;;;;;;5116225;28;20032;-54
2021/11/21 05:38:06;;;;;;;6.07;2.90;;;20.00;47.30;;;;;;5115924;28;20026;-51
2021/11/21 05:40:32;;;;;;;5.07;2.78;;;20.00;47.20;;;;;;5115627;28;20463;-50
2021/11/21 05:42:57;;;;;;;5.07;2.40;;;20.00;47.20;;;;;;5115660;28;20043;-53
2021/11/21 05:45:23;;;;;;;5.63;3.10;;;20.10;47.20;;;;;;5116004;28;20023;-51
2021/11/21 05:47:49;;;;;;;5.90;2.95;;;20.10;47.20;;;;;;5115699;28;20110;-56
2021/11/21 05:50:15;;;;;;;4.57;2.45;;;20.10;47.20;;;;;;5115865;28;20107;-55
2021/11/21 05:52:43;;;;;;;5.78;2.92;;;20.10;47.10;;;;;;5115908;28;20128;-50
2021/11/21 05:55:09;;;;;;;5.75;2.95;;;20.10;47.10;;;;;;5114370;28;20482;-51
2021/11/21 05:57:34;;;;;;;5.07;2.58;;;20.10;47.10;;;;;;5115369;28;20067;-49
2021/11/21 06:00:03;;;;;;;4.85;2.45;;;20.20;47.20;;;;;;5115748;27;20023;-49
2021/11/21 06:02:29;;;;;;;5.45;2.80;;;20.20;47.10;;;;;;5115285;28;20031;-50
2021/11/21 06:04:54;;;;;;;5.28;2.60;;;20.20;47.10;;;;;;5115688;28;20019;-52
2021/11/21 06:07:20;;;;;;;5.25;2.67;;;20.20;47.10;;;;;;5115375;28;20039;-51
2021/11/21 06:09:45;;;;;;;4.03;2.20;;;20.10;47.10;;;;;;5115534;28;20023;-54
2021/11/21 06:12:11;;;;;;;5.63;2.88;;;20.20;47.10;;;;;;5114907;28;20028;-52
2021/11/21 06:14:36;;;;;;;6.40;2.80;;;20.10;47.10;;;;;;5115428;28;20016;-50
2021/11/21 06:17:04;;;;;;;6.38;3.17;;;20.20;47.20;;;;;;5115394;28;20023;-52
2021/11/21 06:19:30;;;;;;;5.32;2.70;;;20.10;47.20;;;;;;5115252;28;20027;-50
2021/11/21 06:21:56;;;;;;;5.88;2.83;;;20.20;47.10;;;;;;5115303;28;20153;-49
2021/11/21 06:24:22;;;;;;;5.65;2.80;;;20.20;47.10;;;;;;5115236;28;20058;-54
2021/11/21 06:26:48;;;;;;;5.60;3.05;;;20.20;47.20;;;;;;5114986;28;20504;-50
2021/11/21 06:29:14;;;;;;;4.78;2.72;;;20.20;47.10;;;;;;5115118;28;20032;-55
2021/11/21 06:31:39;;;;;;;5.63;3.00;;;20.10;47.20;;;;;;5115159;28;20051;-52
2021/11/21 06:34:05;;;;;;;5.95;2.80;;;20.20;47.20;;;;;;5114802;28;20058;-52
2021/11/21 06:36:31;;;;;;;5.60;3.17;;;20.20;47.20;;;;;;5115012;28;20020;-51
2021/11/21 06:38:57;;;;;;;5.65;2.92;;;20.20;47.20;;;;;;5115010;28;20070;-49
2021/11/21 06:41:23;;;;;;;5.45;2.75;;;20.10;47.20;;;;;;5114409;28;20044;-50
2021/11/21 06:43:49;;;;;;;5.70;2.88;;;20.10;47.20;;;;;;5113273;28;20035;-54
2021/11/21 06:46:15;;;;;;;5.47;2.63;;;20.20;47.20;;;;;;5114802;28;20098;-52
2021/11/21 06:48:41;;;;;;;5.47;2.97;;;20.20;47.20;;;;;;5114413;28;20478;-49
2021/11/21 06:51:07;;;;;;;5.50;2.80;;;20.20;47.20;;;;;;5114551;28;20059;-50
2021/11/21 06:53:33;;;;;;;5.07;2.72;;;20.20;47.20;;;;;;5114404;28;20062;-54
2021/11/21 06:55:58;;;;;;;6.50;3.25;;;20.20;47.20;;;;;;5114583;28;20020;-50
2021/11/21 06:58:27;;;;;;;5.53;3.03;;;20.20;47.20;;;;;;5114335;28;20031;-49
2021/11/21 07:00:52;;;;;;;6.15;3.15;;;20.20;47.20;;;;;;5114563;28;20031;-52
2021/11/21 07:03:18;;;;;;;6.13;3.10;;;20.20;47.20;;;;;;5114180;28;20036;-50
2021/11/21 07:05:45;;;;;;;6.45;2.80;;;20.20;47.20;;;;;;5114331;28;20115;-49
2021/11/21 07:08:10;;;;;;;5.40;3.05;;;20.10;47.20;;;;;;5114067;28;20431;-52
2021/11/21 07:10:36;;;;;;;5.13;2.80;;;20.20;47.20;;;;;;5113994;28;20026;-49
2021/11/21 07:13:02;;;;;;;5.50;2.97;;;20.20;47.20;;;;;;5114304;28;20027;-49
2021/11/21 07:15:28;;;;;;;5.50;2.60;;;20.20;47.20;;;;;;5112839;28;20486;-53
2021/11/21 07:17:54;;;;;;;4.72;2.55;;;20.20;47.20;;;;;;5114271;28;20028;-49
2021/11/21 07:20:20;;;;;;;5.78;2.80;;;20.20;47.20;;;;;;5114017;28;20106;-49
2021/11/21 07:22:51;;;;;;;5.05;2.80;;;20.20;47.20;;;;;;5114334;28;20160;-50
2021/11/21 07:25:18;;;;;;;6.40;3.42;;;20.20;47.20;;;;;;5113144;28;20532;-53
2021/11/21 07:27:44;;;;;;;5.10;2.80;;;20.20;47.20;;;;;;5114253;28;20076;-53
2021/11/21 07:30:12;;;;;;;8.90;3.33;;;20.20;47.20;;;;;;5113938;28;20073;-52
2021/11/21 07:32:38;;;;;;;5.13;2.92;;;20.20;47.20;;;;;;5113877;28;20024;-51
2021/11/21 07:35:04;;;;;;;4.90;2.90;;;20.20;47.20;;;;;;5113706;28;20028;-51
2021/11/21 07:37:30;;;;;;;5.38;2.75;;;20.20;47.20;;;;;;5113823;28;20119;-50
2021/11/21 07:39:55;;;;;;;5.28;2.60;;;20.20;47.20;;;;;;5113596;28;20107;-49
2021/11/21 07:42:21;;;;;;;4.57;2.47;;;20.20;47.20;;;;;;5113312;28;20494;-54
2021/11/21 07:44:47;;;;;;;4.68;2.63;;;20.20;47.10;;;;;;5113613;28;20031;-50
2021/11/21 07:47:14;;;;;;;5.03;2.80;;;20.20;47.20;;;;;;5113817;28;20040;-54
2021/11/21 07:49:40;;;;;;;4.72;2.35;;;20.20;47.20;;;;;;5113472;28;20032;-54
2021/11/21 07:52:06;;;;;;;5.00;2.53;;;20.20;47.20;;;;;;5113767;28;20024;-52
2021/11/21 07:54:32;;;;;;;5.47;2.80;;;20.20;47.20;;;;;;5113386;28;20020;-51
2021/11/21 07:56:58;;;;;;;5.22;2.45;;;20.20;47.20;;;;;;5113683;28;20042;-53
2021/11/21 07:59:24;;;;;;;4.55;2.50;;;20.20;47.20;;;;;;5113678;28;20020;-50
2021/11/21 08:01:49;;;;;;;6.15;2.72;;;20.30;47.20;;;;;;5113295;28;20028;-53
2021/11/21 08:04:15;;;;;;;4.47;2.40;;;20.20;47.20;;;;;;5113216;28;20042;-52
2021/11/21 08:06:41;;;;;;;4.85;2.40;;;20.30;47.20;;;;;;5113521;28;20102;-52
2021/11/21 08:09:07;;;;;;;4.90;2.50;;;20.20;47.20;;;;;;5113324;28;20471;-49
2021/11/21 08:11:32;;;;;;;5.00;2.30;;;20.20;47.20;;;;;;5113224;28;20024;-51
2021/11/21 08:13:58;;;;;;;4.80;2.42;;;20.20;47.20;;;;;;5113325;28;20027;-51
2021/11/21 08:16:23;;;;;;;5.28;2.60;;;20.20;47.20;;;;;;5113215;28;20027;-54
2021/11/21 08:18:49;;;;;;;5.82;2.75;;;20.20;47.20;;;;;;5111976;28;20020;-52
2021/11/21 08:21:14;;;;;;;5.00;2.45;;;20.20;47.20;;;;;;5113195;28;20016;-50
2021/11/21 08:23:40;;;;;;;5.18;2.70;;;20.20;47.20;;;;;;5113351;28;20127;-50
2021/11/21 08:26:05;;;;;;;4.40;2.35;;;20.30;47.20;;;;;;5113298;28;20378;-49
2021/11/21 08:28:32;;;;;;;4.00;2.20;;;20.30;47.20;;;;;;5113302;28;20024;-51
2021/11/21 08:30:57;;;;;;;5.80;3.08;;;20.20;47.20;;;;;;5113316;28;20020;-50
2021/11/21 08:33:23;;;;;;;5.13;2.55;;;20.30;47.20;;;;;;5112942;28;20024;-50
2021/11/21 08:35:48;;;;;;;4.72;2.60;;;20.20;47.20;;;;;;5114349;28;20024;-51
2021/11/21 08:38:14;;;;;;;5.13;2.70;;;20.30;47.20;;;;;;5115750;28;20026;-52
2021/11/21 08:40:41;;;;;;;5.68;2.78;;;20.30;47.20;;;;;;5117031;28;20111;-54
2021/11/21 08:43:06;;;;;;;4.80;2.45;;;20.30;47.20;;;;;;5117274;27;20067;-53
2021/11/21 08:45:33;;;;;;;5.82;2.40;;;20.30;47.20;;;;;;5117047;28;20027;-54
2021/11/21 08:48:00;;;;;;;5.75;2.88;;;20.30;47.20;;;;;;5116861;28;20532;-52
2021/11/21 08:50:26;;;;;;;4.55;2.20;;;20.30;47.20;;;;;;5116750;27;20024;-54
2021/11/21 08:52:52;;;;;;;4.03;2.05;;;20.20;47.20;;;;;;5117029;28;20039;-52
2021/11/21 08:55:18;;;;;;;5.18;2.47;;;20.30;47.20;;;;;;5116912;28;20042;-51
2021/11/21 08:57:45;;;;;;;4.47;2.40;;;20.20;47.20;;;;;;5116764;28;20463;-50
2021/11/21 09:00:12;;;;;;;5.18;2.45;;;20.30;47.20;;;;;;5116973;28;20091;-51
2021/11/21 09:02:38;;;;;;;5.22;2.72;;;20.30;47.20;;;;;;5116777;28;20394;-49
2021/11/21 09:05:07;;;;;;;6.38;2.80;;;20.30;47.20;;;;;;5116496;28;20023;-53
2021/11/21 09:07:39;;;;;;;5.68;2.75;;;20.30;47.20;;;;;;5116539;27;20026;-54
2021/11/21 09:10:08;;;;;;;5.00;2.65;;;20.20;47.20;;;;;;5116484;28;20432;-53
2021/11/21 09:12:33;;;;;;;5.93;2.50;;;20.30;47.20;;;;;;5115357;28;20027;-53
2021/11/21 09:14:59;;;;;;;5.57;2.70;;;20.30;47.20;;;;;;5116642;28;20516;-51
2021/11/21 09:17:25;;;;;;;5.20;2.38;;;20.30;47.20;;;;;;5116485;28;20055;-52
2021/11/21 09:19:50;;;;;;;4.05;2.33;;;20.30;47.20;;;;;;5116222;28;20484;-51
2021/11/21 09:22:16;;;;;;;3.78;2.20;;;20.30;47.20;;;;;;5116433;28;20035;-54
2021/11/21 09:24:42;;;;;;;4.05;1.95;;;20.30;47.20;;;;;;5116162;28;20474;-52
2021/11/21 09:27:13;;;;;;;3.88;2.17;;;20.30;47.20;;;;;;5116164;28;20038;-50
2021/11/21 09:29:40;;;;;;;4.28;2.50;;;20.30;47.20;;;;;;5116314;28;20032;-50
2021/11/21 09:32:06;;;;;;;3.72;2.10;;;20.30;47.20;;;;;;5116082;28;20026;-50
2021/11/21 09:34:33;;;;;;;4.88;2.33;;;20.30;47.20;;;;;;5116236;28;20027;-50
2021/11/21 09:36:58;;;;;;;4.68;2.42;;;20.30;47.20;;;;;;5115979;28;20024;-50
2021/11/21 09:39:24;;;;;;;5.25;2.50;;;20.30;47.20;;;;;;5116044;28;20469;-50
2021/11/21 09:41:50;;;;;;;5.03;2.35;;;20.30;47.30;;;;;;5115644;28;20403;-53
2021/11/21 09:44:15;;;;;;;3.97;2.10;;;20.30;47.20;;;;;;5115757;28;20115;-50
2021/11/21 09:46:41;;;;;;;4.40;2.22;;;20.30;47.20;;;;;;5115765;28;20024;-52
2021/11/21 09:49:06;;;;;;;4.78;2.38;;;20.30;47.20;;;;;;5115000;28;20368;-53
2021/11/21 09:51:32;;;;;;;4.40;2.45;;;20.30;47.20;;;;;;5115959;28;20027;-53
2021/11/21 09:53:57;;;;;;;5.13;2.25;;;20.30;47.30;;;;;;5115610;28;20535;-53
2021/11/21 09:56:23;;;;;;;4.05;2.03;;;20.30;47.20;;;;;;5115846;28;20073;-54
2021/11/21 09:58:48;;;;;;;5.20;2.60;;;20.20;47.30;;;;;;5115885;28;20019;-54
2021/11/21 10:01:35;;;;;;;4.80;2.33;;;20.30;47.30;;;;;;5115464;28;20020;-52
2021/11/21 10:04:02;;;;;;;4.40;2.38;;;20.30;47.30;;;;;;5115317;28;20573;-51
2021/11/21 10:06:34;;;;;;;4.55;2.25;;;20.30;47.30;;;;;;5115408;27;20020;-55
2021/11/21 10:09:00;;;;;;;4.43;2.33;;;20.30;47.30;;;;;;5114014;28;20027;-52
2021/11/21 10:11:26;;;;;;;3.88;2.22;;;20.20;47.30;;;;;;5115343;28;20102;-52
2021/11/21 10:13:55;;;;;;;4.20;2.10;;;20.30;47.30;;;;;;5115384;28;20115;-52
2021/11/21 10:16:31;;;;;;;4.63;2.33;;;20.30;47.30;;;;;;5115486;28;20032;-54
2021/11/21 10:19:07;;;;;;;4.50;1.90;;;20.30;47.30;;;;;;5115549;28;20030;-51
2021/11/21 10:21:35;;;;;;;4.35;2.15;;;20.30;47.30;;;;;;5115346;28;20047;-56
2021/11/21 10:24:24;;;;;;;5.38;2.53;;;20.20;47.30;;;;;;5115170;28;20122;-51
2021/11/21 10:27:03;;;;;;;4.05;2.13;;;20.30;47.30;;;;;;5114934;28;20532;-53
2021/11/21 10:29:35;;;;;;;4.47;1.88;;;20.30;47.20;;;;;;5115137;28;20024;-52
2021/11/21 10:32:02;;;;;;;4.72;2.10;;;20.30;47.30;;;;;;5114898;28;20028;-51
2021/11/21 10:34:28;;;;;;;4.00;2.38;;;20.30;47.30;;;;;;5114799;28;20076;-51
2021/11/21 10:36:55;;;;;;;4.13;2.00;;;20.30;47.30;;;;;;5114793;28;20023;-53
2021/11/21 10:39:26;;;;;;;4.43;2.25;;;20.30;47.30;;;;;;5115019;28;20027;-53
2021/11/21 10:41:54;;;;;;;4.57;2.25;;;20.30;47.30;;;;;;5114582;28;20130;-55
2021/11/21 10:44:21;;;;;;;4.38;2.20;;;20.30;47.30;;;;;;5114423;28;20042;-53
2021/11/21 10:46:50;;;;;;;4.20;2.20;;;20.30;47.30;;;;;;5114901;28;20042;-52
2021/11/21 10:49:30;;;;;;;4.35;2.10;;;20.30;47.30;;;;;;5114748;28;20092;-54
2021/11/21 10:52:10;;;;;;;4.03;2.08;;;20.30;47.30;;;;;;5114780;28;20107;-50
2021/11/21 10:54:45;;;;;;;3.95;1.83;;;20.30;47.20;;;;;;5114643;28;20046;-54
2021/11/21 10:57:37;;;;;;;8.73;2.10;;;20.30;47.20;;;;;;5114520;28;20070;-53
2021/11/21 11:00:14;;;;;;;4.45;2.20;;;20.30;47.20;;;;;;5110320;28;20039;-55
2021/11/21 11:02:42;;;;;;;3.92;1.98;;;20.30;47.20;;;;;;5114313;28;20028;-53
2021/11/21 11:05:11;;;;;;;3.60;1.90;;;20.30;47.20;;;;;;5114325;28;20099;-51
2021/11/21 11:07:39;;;;;;;3.92;2.10;;;20.30;47.20;;;;;;5114499;28;20024;-51
2021/11/21 11:10:18;;;;;;;4.13;1.92;;;20.40;47.20;;;;;;5114106;28;20404;-49
2021/11/21 11:12:47;;;;;;;4.55;2.20;;;20.30;47.20;;;;;;5112908;28;20028;-51
2021/11/21 11:15:13;;;;;;;3.85;1.90;;;20.30;47.20;;;;;;5114363;28;20019;-54
2021/11/21 11:17:39;;;;;;;3.60;1.95;;;20.40;47.10;;;;;;5114125;28;20027;-50
2021/11/21 11:20:08;;;;;;;3.70;1.85;;;20.30;47.20;;;;;;5113975;28;20030;-51
2021/11/21 11:22:34;;;;;;;2.40;1.38;;;20.30;47.20;;;;;;5114110;28;20023;-52
2021/11/21 11:25:07;;;;;;;4.03;1.80;;;20.40;47.10;;;;;;5114091;28;20379;-52
2021/11/21 11:27:59;;;;;;;4.53;2.00;;;20.30;47.20;;;;;;5114631;28;20019;-54
2021/11/21 11:30:31;;;;;;;4.47;2.05;;;20.30;47.20;;;;;;5107997;28;20039;-53
2021/11/21 11:33:13;;;;;;;4.13;1.90;;;20.30;47.20;;;;;;5113744;28;20110;-51
2021/11/21 11:35:53;;;;;;;3.03;1.60;;;20.30;47.20;;;;;;5114213;28;20077;-50
2021/11/21 11:38:25;;;;;;;4.35;1.70;;;20.30;47.20;;;;;;5114314;28;20035;-51
2021/11/21 11:40:57;;;;;;;3.65;1.75;;;20.30;47.20;;;;;;5113567;28;20210;-53
2021/11/21 11:43:29;;;;;;;4.03;1.95;;;20.30;47.20;;;;;;5113577;28;20409;-53
2021/11/21 11:46:00;;;;;;;4.57;2.10;;;20.30;47.20;;;;;;5113788;28;20019;-52
2021/11/21 11:48:38;;;;;;;3.60;1.65;;;20.30;47.20;;;;;;5113941;28;20411;-54
2021/11/21 11:51:17;;;;;;;2.67;1.48;;;20.30;47.20;;;;;;5113698;28;20076;-52
2021/11/21 11:53:49;;;;;;;4.13;1.58;;;20.30;47.20;;;;;;5113784;28;20030;-55
2021/11/21 11:56:29;;;;;;;4.40;1.90;;;20.30;47.20;;;;;;5113730;28;20103;-50
2021/11/21 11:59:02;;;;;;;4.60;2.10;;;20.30;47.30;;;;;;5113762;28;20423;-55
2021/11/21 12:01:34;;;;;;;3.45;1.73;;;20.30;47.20;;;;;;5113494;28;20027;-54
2021/11/21 12:04:02;;;;;;;3.42;1.70;;;20.30;47.20;;;;;;5113386;28;20031;-53
2021/11/21 12:06:45;;;;;;;3.70;1.80;;;20.30;47.20;;;;;;5113296;28;20023;-52
2021/11/21 12:09:16;;;;;;;5.63;2.20;;;20.30;47.20;;;;;;5113676;28;20120;-53
2021/11/21 12:12:02;;;;;;;4.63;1.83;;;20.30;47.20;;;;;;5115859;28;20020;-54
2021/11/21 12:14:29;;;;;;;4.47;2.13;;;20.30;47.20;;;;;;5117448;28;20493;-54
2021/11/21 12:17:00;;;;;;;3.97;1.83;;;20.30;47.10;;;;;;5117382;28;20032;-52
2021/11/21 12:19:44;;;;;;;4.25;1.92;;;20.30;47.10;;;;;;5117684;28;20031;-53
2021/11/21 12:22:25;;;;;;;4.30;1.67;;;20.30;47.10;;;;;;5117541;28;20058;-54
2021/11/21 12:25:03;;;;;;;4.00;1.83;;;20.30;47.10;;;;;;5117576;28;20043;-55
2021/11/21 12:27:35;;;;;;;4.80;1.80;;;20.30;47.10;;;;;;5117597;28;20363;-52
2021/11/21 12:30:18;;;;;;;4.82;1.63;;;20.30;47.10;;;;;;5117420;28;20265;-50
2021/11/21 12:32:49;;;;;;;5.32;2.03;;;20.30;47.10;;;;;;5117556;28;20085;-58
2021/11/21 12:35:30;;;;;;;3.63;1.58;;;20.30;47.10;;;;;;5117123;27;20479;-52
2021/11/21 12:38:00;;;;;;;3.60;1.60;;;20.30;47.10;;;;;;5117261;28;20039;-52
2021/11/21 12:40:28;;;;;;;4.38;1.60;;;20.30;47.10;;;;;;5116925;28;20016;-55
2021/11/21 12:42:57;;;;;;;6.53;1.90;;;20.30;47.00;;;;;;5117384;28;20167;-54
2021/11/21 12:45:32;;;;;;;4.30;1.80;;;20.30;47.00;;;;;;5116875;28;20020;-54
2021/11/21 12:48:00;;;;;;;5.03;1.80;;;20.30;47.00;;;;;;5117199;28;20031;-58
2021/11/21 12:50:33;;;;;;;3.88;1.65;;;20.30;47.00;;;;;;5116678;28;20059;-54